createdAt,value
2022-10-31T01:48:32.446Z,14.04
2022-10-31T01:52:39.705Z,14.05
2022-10-31T01:56:48.511Z,14.05
2022-10-31T02:00:56.055Z,14.05
2022-10-31T02:05:04.043Z,14.07
2022-10-31T02:09:08.673Z,14.07
2022-10-31T02:13:14.500Z,14.07
2022-10-31T02:17:18.184Z,14.10
2022-10-31T02:21:31.187Z,14.12
2022-10-31T02:30:10.107Z,14.14
2022-10-31T02:34:20.326Z,14.11
2022-10-31T02:38:32.344Z,14.14
2022-10-31T02:42:42.902Z,14.15
2022-10-31T02:46:51.327Z,14.15
2022-10-31T02:51:00.616Z,14.15
2022-10-31T02:55:13.507Z,14.16
2022-10-31T02:59:17.169Z,14.15
2022-10-31T03:03:27.093Z,14.11
2022-10-31T03:07:42.252Z,14.07
2022-10-31T03:11:52.167Z,14.02
2022-10-31T03:16:03.917Z,14.00
2022-10-31T03:20:12.351Z,14.00
2022-10-31T03:24:18.962Z,13.99
2022-10-31T03:28:29.134Z,13.99
2022-10-31T03:32:37.784Z,13.97
2022-10-31T03:36:43.420Z,13.97
2022-10-31T03:40:50.672Z,13.96
2022-10-31T03:44:59.501Z,13.95
2022-10-31T03:49:03.741Z,13.95
2022-10-31T03:53:12.456Z,13.94
2022-10-31T03:57:26.219Z,13.93
2022-10-31T04:01:33.119Z,13.85
2022-10-31T04:05:38.595Z,13.91
2022-10-31T04:09:46.933Z,13.90
2022-10-31T04:13:52.857Z,13.91
2022-10-31T04:18:01.610Z,13.92
2022-10-31T04:22:05.108Z,13.92
2022-10-31T04:26:09.157Z,13.92
2022-10-31T04:30:14.704Z,13.94
2022-10-31T04:34:18.365Z,13.96
2022-10-31T04:38:21.977Z,13.97
2022-10-31T04:42:25.109Z,14.01
2022-10-31T04:46:29.567Z,14.03
2022-10-31T04:50:33.189Z,14.06
2022-10-31T04:54:36.789Z,14.08
2022-10-31T04:58:39.831Z,14.09
2022-10-31T05:02:48.791Z,14.09
2022-10-31T05:06:52.796Z,14.05
2022-10-31T05:10:57.342Z,14.03
2022-10-31T05:15:04.590Z,13.98
2022-10-31T05:19:09.490Z,13.94
2022-10-31T05:23:13.375Z,13.90
2022-10-31T05:27:17.098Z,13.86
2022-10-31T05:31:20.218Z,13.81
2022-10-31T05:35:26.778Z,13.80
2022-10-31T05:39:30.338Z,13.76
2022-10-31T05:43:33.911Z,13.77
2022-10-31T05:47:37.091Z,13.78
2022-10-31T05:51:41.537Z,13.79
2022-10-31T05:55:45.790Z,13.80
2022-10-31T05:59:53.934Z,13.79
2022-10-31T06:03:58.057Z,13.78
2022-10-31T06:08:04.087Z,13.79
2022-10-31T06:12:08.290Z,13.75
2022-10-31T06:16:11.381Z,13.73
2022-10-31T06:20:14.951Z,13.74
2022-10-31T06:24:19.968Z,13.76
2022-10-31T06:28:22.987Z,13.78
2022-10-31T06:32:26.456Z,13.81
2022-10-31T06:36:30.094Z,13.82
2022-10-31T06:40:34.554Z,13.85
2022-10-31T06:44:38.154Z,13.89
2022-10-31T06:48:42.799Z,13.93
2022-10-31T06:52:46.504Z,13.99
2022-10-31T06:56:51.209Z,14.06
2022-10-31T07:00:54.707Z,14.13
2022-10-31T07:04:57.796Z,14.19
2022-10-31T07:09:01.442Z,14.25
2022-10-31T07:13:08.202Z,14.35
2022-10-31T07:17:11.250Z,14.42
2022-10-31T07:21:14.742Z,14.52
2022-10-31T07:25:17.838Z,14.63
2022-10-31T07:29:22.293Z,14.72
2022-10-31T07:33:27.943Z,14.80
2022-10-31T07:37:31.040Z,14.87
2022-10-31T07:41:34.606Z,14.89
2022-10-31T07:45:39.080Z,14.92
2022-10-31T07:49:42.580Z,14.92
2022-10-31T07:53:45.833Z,14.94
2022-10-31T07:57:48.877Z,14.95
2022-10-31T08:01:53.404Z,14.96
2022-10-31T08:05:56.378Z,15.04
2022-10-31T08:09:59.971Z,15.05
2022-10-31T08:14:03.535Z,15.08
2022-10-31T08:18:08.892Z,15.16
2022-10-31T08:22:12.452Z,15.23
2022-10-31T08:26:16.045Z,15.32
2022-10-31T08:30:19.522Z,15.47
2022-10-31T08:34:27.090Z,15.61
2022-10-31T08:38:31.413Z,15.72
2022-10-31T08:42:34.596Z,15.86
2022-10-31T08:46:38.067Z,16.00
2022-10-31T08:50:43.678Z,16.16
2022-10-31T08:54:46.715Z,16.29
2022-10-31T08:58:50.522Z,16.42
2022-10-31T09:02:58.384Z,16.61
2022-10-31T09:11:26.297Z,16.98
2022-10-31T09:15:30.971Z,17.19
2022-10-31T09:19:33.897Z,17.31
2022-10-31T09:23:38.788Z,17.41
2022-10-31T09:27:42.274Z,17.48
2022-10-31T09:31:45.718Z,17.58
2022-10-31T09:35:49.102Z,17.69
2022-10-31T09:39:54.171Z,17.83
2022-10-31T09:44:07.494Z,17.98
2022-10-31T09:48:30.244Z,18.16
2022-10-31T09:52:37.185Z,18.30
2022-10-31T09:56:41.658Z,18.46
2022-10-31T10:00:46.938Z,18.60
2022-10-31T10:04:59.430Z,18.77
2022-10-31T10:09:03.664Z,18.90
2022-10-31T10:13:34.949Z,19.04
2022-10-31T10:17:44.832Z,19.11
2022-10-31T10:21:53.972Z,19.17
2022-10-31T10:26:08.722Z,19.23
2022-10-31T10:30:20.239Z,19.26
2022-10-31T10:34:29.148Z,19.31
2022-10-31T10:38:38.771Z,19.36
2022-10-31T10:42:59.859Z,19.39
2022-10-31T10:47:22.597Z,19.43
2022-10-31T10:51:54.739Z,19.44
2022-10-31T10:56:06.242Z,19.48
2022-10-31T11:00:23.108Z,19.55
2022-10-31T11:04:33.266Z,19.60
2022-10-31T11:08:39.796Z,19.69
2022-10-31T11:12:43.877Z,19.80
2022-10-31T11:16:50.132Z,19.88
2022-10-31T11:20:57.193Z,19.92
2022-10-31T11:25:00.817Z,19.90
2022-10-31T11:29:05.469Z,19.89
2022-10-31T11:33:18.538Z,19.90
2022-10-31T11:37:26.079Z,19.91
2022-10-31T11:41:32.882Z,19.88
2022-10-31T11:45:37.962Z,19.89
2022-10-31T11:49:44.193Z,19.91
2022-10-31T11:53:57.048Z,19.89
2022-10-31T11:58:04.078Z,19.86
2022-10-31T12:02:21.804Z,19.90
2022-10-31T12:06:31.087Z,19.96
2022-10-31T12:10:44.845Z,20.08
2022-10-31T12:15:02.168Z,20.17
2022-10-31T12:19:08.954Z,20.20
2022-10-31T12:23:21.370Z,20.16
2022-10-31T12:27:38.211Z,20.12
2022-10-31T12:32:14.486Z,20.10
2022-10-31T12:36:41.497Z,20.06
2022-10-31T12:41:04.728Z,20.01
2022-10-31T12:45:33.286Z,19.98
2022-10-31T12:49:47.517Z,19.89
2022-10-31T12:54:05.429Z,19.86
2022-10-31T12:58:14.742Z,19.87
2022-10-31T13:02:24.775Z,19.96
2022-10-31T13:12:21.825Z,20.03
2022-10-31T13:16:29.183Z,19.94
2022-10-31T13:20:37.615Z,19.87
2022-10-31T13:24:45.379Z,19.86
2022-10-31T13:29:03.515Z,19.84
2022-10-31T13:33:15.316Z,19.83
2022-10-31T13:37:31.082Z,19.80
2022-10-31T13:41:43.002Z,19.73
2022-10-31T13:45:53.608Z,19.56
2022-10-31T13:50:08.251Z,19.39
2022-10-31T13:54:25.748Z,19.22
2022-10-31T13:58:31.661Z,19.06
2022-10-31T14:02:37.983Z,18.90
2022-10-31T14:06:49.297Z,18.73
2022-10-31T14:10:57.301Z,18.58
2022-10-31T14:15:05.239Z,18.43
2022-10-31T14:19:15.361Z,18.26
2022-10-31T14:23:41.877Z,18.07
2022-10-31T14:27:49.454Z,17.90
2022-10-31T14:31:56.356Z,17.75
2022-10-31T14:36:04.012Z,17.63
2022-10-31T14:40:20.188Z,17.54
2022-10-31T14:45:04.138Z,17.49
2022-10-31T14:49:35.704Z,17.43
2022-10-31T14:53:49.186Z,17.36
2022-10-31T14:57:56.636Z,17.25
2022-10-31T15:02:04.314Z,17.14
2022-10-31T15:06:15.708Z,17.00
2022-10-31T15:10:23.855Z,16.85
2022-10-31T15:14:29.332Z,16.70
2022-10-31T15:18:34.033Z,16.55
2022-10-31T15:22:38.026Z,16.39
2022-10-31T15:26:43.851Z,16.26
2022-10-31T15:30:57.874Z,16.12
2022-10-31T15:35:12.400Z,15.97
2022-10-31T15:39:16.312Z,15.82
2022-10-31T15:43:20.155Z,15.68
2022-10-31T15:47:26.418Z,15.56
2022-10-31T15:51:37.304Z,15.43
2022-10-31T15:55:52.282Z,15.32
2022-10-31T15:59:56.190Z,15.20
2022-10-31T16:04:05.432Z,15.10
2022-10-31T16:08:27.303Z,15.00
2022-10-31T16:12:34.604Z,14.91
2022-10-31T16:16:44.817Z,14.83
2022-10-31T16:20:54.164Z,14.74
2022-10-31T16:25:03.936Z,14.67
2022-10-31T16:29:07.151Z,14.60
2022-10-31T16:33:27.812Z,14.55
2022-10-31T16:37:31.459Z,14.49
2022-10-31T16:41:41.164Z,14.45
2022-10-31T16:45:47.082Z,14.41
2022-10-31T16:49:51.354Z,14.37
2022-10-31T16:53:55.244Z,14.35
2022-10-31T16:58:01.164Z,14.34
2022-10-31T17:02:06.957Z,14.31
2022-10-31T17:06:14.980Z,14.31
2022-10-31T17:10:19.259Z,14.29
2022-10-31T17:14:24.073Z,14.31
2022-10-31T17:18:27.948Z,14.30
2022-10-31T17:22:31.946Z,14.32
2022-10-31T17:26:35.557Z,14.34
2022-10-31T17:30:41.184Z,14.39
2022-10-31T17:34:44.470Z,14.43
2022-10-31T17:38:48.024Z,14.49
2022-10-31T17:42:52.578Z,14.55
2022-10-31T17:46:58.449Z,14.61
2022-10-31T17:51:02.734Z,14.65
2022-10-31T17:55:06.705Z,14.69
2022-10-31T17:59:10.073Z,14.72
2022-10-31T18:03:15.022Z,14.75
2022-10-31T18:07:19.476Z,14.79
2022-10-31T18:11:23.865Z,14.82
2022-10-31T18:15:28.329Z,14.83
2022-10-31T18:19:32.736Z,14.86
2022-10-31T18:23:36.192Z,14.88
2022-10-31T18:27:39.166Z,14.89
2022-10-31T18:31:42.543Z,14.90
2022-10-31T18:35:47.070Z,14.92
2022-10-31T18:39:50.574Z,14.92
2022-10-31T18:43:56.395Z,14.91
2022-10-31T18:48:00.096Z,14.93
2022-10-31T18:52:04.982Z,14.92
2022-10-31T18:56:10.728Z,14.92
2022-10-31T19:00:15.207Z,14.91
